Winchester, VA (22602)

3:09 PM EST on February 10, 2016 (GMT -0500)
Briarwood Estates | | Change Station
CLOSE
Current Station
Personal Weather Station
Location: Winchester, VA
Elevation: 656 ft
Nearby Weather Stations

Elev 656 ft 39.17 °N, 78.11 °W | Updated 55 seconds ago

Mostly Cloudy
Mostly Cloudy
29.5 °F
Feels Like 25 °F
N
4.2
Wind Variable Wind from SSW
Gusts 9.9 mph

Today
High -- | Low -- °F
--% Chance of Precip.
Yesterday
High -- | Low -- °F
Precip. -- in
Pressure 29.77 in
Visibility 10.0 miles
Clouds Overcast 5500 ft
Windchill 25 °F
Dew Point 10 °F
Humidity 44%
Rainfall 0.00 in
Snow Depth Not available.
7:10 AM 5:43 PM
Waxing Crescent, 7% visible
METAR KOKV 101955Z AUTO 31018G21KT 10SM OVC055 00/M10 A2977 RMK AO2
Pressure 29.77 in
Visibility 10.0 miles
Clouds Overcast 5500 ft
Windchill 25 °F
Dew Point 10 °F
Humidity 44%
Rainfall 0.00 in
Snow Depth Not available.
7:10 AM 5:43 PM
Waxing Crescent, 7% visible
METAR KOKV 101955Z AUTO 31018G21KT 10SM OVC055 00/M10 A2977 RMK AO2

10-Day Weather Forecast

Almanac

Astronomy

Feb. 10, 2016 Rise Set
Actual Time
Civil Twilight
Nautical Twilight
Astronomical Twilight
Moon
Length of Visible Light
Length of Day
Tomorrow will be .
, % of the Moon is Illuminated

Today's Extremes

State Highs State Lows

Community

WunderPhotos

Upload Photos

1,891,929 photos uploaded!

WunderBlog® & News

Nearby

Air Quality

  Air Quality AQ Index Pollutant
Not available.

Snow Depth

Station Depth Elevation

Earthquake Activity

City Distance Mag. Time & Date
Minimum magnitude displayed is 2.5.

Coastal Water Temperatures

Place Temperature

Stations

Nearby Weather Stations

Station Location Temp. Windchill Dew Point Humidity Wind Precip. Elev Updated Type
                   

Watches & Warnings

There are currently no watches in effect.